sensor_id;sensor_type;location;lat;lon;timestamp;P1;durP1;ratioP1;P2;durP2;ratioP2
73747;SDS011;62056;52.130;5.428;2022-09-03T00:01:34;5.05;;;1.40;;
73747;SDS011;62056;52.130;5.428;2022-09-03T00:04:08;1.92;;;1.10;;
73747;SDS011;62056;52.130;5.428;2022-09-03T00:06:54;1.02;;;0.90;;
73747;SDS011;62056;52.130;5.428;2022-09-03T00:09:28;4.05;;;1.52;;
73747;SDS011;62056;52.130;5.428;2022-09-03T00:12:01;2.15;;;1.00;;
73747;SDS011;62056;52.130;5.428;2022-09-03T00:14:36;3.20;;;0.80;;
73747;SDS011;62056;52.130;5.428;2022-09-03T00:17:14;2.15;;;1.77;;
73747;SDS011;62056;52.130;5.428;2022-09-03T00:19:47;4.82;;;1.25;;
73747;SDS011;62056;52.130;5.428;2022-09-03T00:22:24;1.38;;;1.02;;
73747;SDS011;62056;52.130;5.428;2022-09-03T00:24:55;1.98;;;1.10;;
73747;SDS011;62056;52.130;5.428;2022-09-03T00:27:26;2.10;;;0.95;;
73747;SDS011;62056;52.130;5.428;2022-09-03T00:30:02;2.38;;;0.77;;
73747;SDS011;62056;52.130;5.428;2022-09-03T00:32:38;1.38;;;1.10;;
73747;SDS011;62056;52.130;5.428;2022-09-03T00:35:10;3.03;;;1.20;;
73747;SDS011;62056;52.130;5.428;2022-09-03T00:37:58;4.85;;;1.60;;
73747;SDS011;62056;52.130;5.428;2022-09-03T00:40:40;1.80;;;1.20;;
73747;SDS011;62056;52.130;5.428;2022-09-03T00:43:34;3.67;;;1.33;;
73747;SDS011;62056;52.130;5.428;2022-09-03T00:49:36;8.75;;;1.13;;
73747;SDS011;62056;52.130;5.428;2022-09-03T00:52:42;4.35;;;1.20;;
73747;SDS011;62056;52.130;5.428;2022-09-03T00:55:19;5.88;;;1.27;;
73747;SDS011;62056;52.130;5.428;2022-09-03T01:00:35;1.73;;;1.35;;
73747;SDS011;62056;52.130;5.428;2022-09-03T01:03:08;1.70;;;0.93;;
73747;SDS011;62056;52.130;5.428;2022-09-03T01:05:53;3.05;;;1.10;;
73747;SDS011;62056;52.130;5.428;2022-09-03T01:17:00;1.90;;;1.08;;
73747;SDS011;62056;52.130;5.428;2022-09-03T01:33:53;1.58;;;1.10;;
73747;SDS011;62056;52.130;5.428;2022-09-03T01:36:33;1.50;;;1.00;;
73747;SDS011;62056;52.130;5.428;2022-09-03T01:39:15;1.73;;;1.13;;
73747;SDS011;62056;52.130;5.428;2022-09-03T01:42:00;3.00;;;1.00;;
73747;SDS011;62056;52.130;5.428;2022-09-03T01:44:53;2.63;;;0.98;;
73747;SDS011;62056;52.130;5.428;2022-09-03T01:59:32;1.65;;;1.17;;
73747;SDS011;62056;52.130;5.428;2022-09-03T02:02:09;2.25;;;0.93;;
73747;SDS011;62056;52.130;5.428;2022-09-03T02:05:01;2.60;;;0.90;;
73747;SDS011;62056;52.130;5.428;2022-09-03T02:07:36;3.47;;;1.10;;
73747;SDS011;62056;52.130;5.428;2022-09-03T02:10:10;1.38;;;0.90;;
73747;SDS011;62056;52.130;5.428;2022-09-03T02:12:43;1.58;;;1.17;;
73747;SDS011;62056;52.130;5.428;2022-09-03T02:15:15;2.15;;;1.38;;
73747;SDS011;62056;52.130;5.428;2022-09-03T02:17:46;2.70;;;1.00;;
73747;SDS011;62056;52.130;5.428;2022-09-03T02:20:18;3.13;;;1.10;;
73747;SDS011;62056;52.130;5.428;2022-09-03T02:22:47;1.45;;;1.10;;
73747;SDS011;62056;52.130;5.428;2022-09-03T02:25:16;2.97;;;0.80;;
73747;SDS011;62056;52.130;5.428;2022-09-03T02:27:43;1.40;;;1.00;;
73747;SDS011;62056;52.130;5.428;2022-09-03T02:30:11;1.27;;;1.17;;
73747;SDS011;62056;52.130;5.428;2022-09-03T02:32:38;3.50;;;1.75;;
73747;SDS011;62056;52.130;5.428;2022-09-03T02:35:05;3.28;;;1.08;;
73747;SDS011;62056;52.130;5.428;2022-09-03T02:37:32;2.00;;;1.02;;
73747;SDS011;62056;52.130;5.428;2022-09-03T02:39:58;2.42;;;1.00;;
73747;SDS011;62056;52.130;5.428;2022-09-03T02:42:25;3.22;;;1.00;;
73747;SDS011;62056;52.130;5.428;2022-09-03T02:44:54;1.83;;;1.20;;
73747;SDS011;62056;52.130;5.428;2022-09-03T02:47:27;5.32;;;0.98;;
73747;SDS011;62056;52.130;5.428;2022-09-03T02:49:58;1.50;;;1.33;;
73747;SDS011;62056;52.130;5.428;2022-09-03T02:52:24;2.47;;;1.13;;
73747;SDS011;62056;52.130;5.428;2022-09-03T02:54:51;1.65;;;0.85;;
73747;SDS011;62056;52.130;5.428;2022-09-03T02:57:18;1.13;;;0.80;;
73747;SDS011;62056;52.130;5.428;2022-09-03T02:59:52;1.87;;;1.00;;
73747;SDS011;62056;52.130;5.428;2022-09-03T03:02:19;2.78;;;0.90;;
73747;SDS011;62056;52.130;5.428;2022-09-03T03:04:45;2.33;;;1.00;;
73747;SDS011;62056;52.130;5.428;2022-09-03T03:07:14;2.33;;;1.60;;
73747;SDS011;62056;52.130;5.428;2022-09-03T03:09:41;4.20;;;0.90;;
73747;SDS011;62056;52.130;5.428;2022-09-03T03:12:08;2.60;;;1.20;;
73747;SDS011;62056;52.130;5.428;2022-09-03T03:14:35;1.67;;;1.13;;
73747;SDS011;62056;52.130;5.428;2022-09-03T03:17:02;1.40;;;0.95;;
73747;SDS011;62056;52.130;5.428;2022-09-03T03:19:28;1.75;;;1.10;;
73747;SDS011;62056;52.130;5.428;2022-09-03T03:21:55;1.75;;;1.08;;
73747;SDS011;62056;52.130;5.428;2022-09-03T03:24:22;3.55;;;1.10;;
73747;SDS011;62056;52.130;5.428;2022-09-03T03:26:48;2.88;;;1.00;;
73747;SDS011;62056;52.130;5.428;2022-09-03T03:29:15;1.88;;;1.00;;
73747;SDS011;62056;52.130;5.428;2022-09-03T03:31:43;3.65;;;1.05;;
73747;SDS011;62056;52.130;5.428;2022-09-03T03:34:10;3.38;;;1.05;;
73747;SDS011;62056;52.130;5.428;2022-09-03T03:36:36;2.78;;;1.52;;
73747;SDS011;62056;52.130;5.428;2022-09-03T03:39:03;1.15;;;0.93;;
73747;SDS011;62056;52.130;5.428;2022-09-03T03:41:31;2.92;;;1.10;;
73747;SDS011;62056;52.130;5.428;2022-09-03T03:44:01;2.17;;;1.00;;
73747;SDS011;62056;52.130;5.428;2022-09-03T03:46:30;4.00;;;1.33;;
73747;SDS011;62056;52.130;5.428;2022-09-03T03:49:02;2.93;;;1.17;;
73747;SDS011;62056;52.130;5.428;2022-09-03T03:51:32;1.20;;;1.10;;
73747;SDS011;62056;52.130;5.428;2022-09-03T03:54:02;1.65;;;1.00;;
73747;SDS011;62056;52.130;5.428;2022-09-03T03:56:31;2.72;;;1.05;;
73747;SDS011;62056;52.130;5.428;2022-09-03T03:58:59;3.70;;;1.00;;
73747;SDS011;62056;52.130;5.428;2022-09-03T04:01:26;3.73;;;1.20;;
73747;SDS011;62056;52.130;5.428;2022-09-03T04:03:54;1.58;;;1.00;;
73747;SDS011;62056;52.130;5.428;2022-09-03T04:06:21;7.75;;;1.10;;
73747;SDS011;62056;52.130;5.428;2022-09-03T04:08:49;4.13;;;0.98;;
73747;SDS011;62056;52.130;5.428;2022-09-03T04:11:16;1.92;;;1.00;;
73747;SDS011;62056;52.130;5.428;2022-09-03T04:13:45;5.33;;;1.30;;
73747;SDS011;62056;52.130;5.428;2022-09-03T04:16:14;5.45;;;0.98;;
73747;SDS011;62056;52.130;5.428;2022-09-03T04:18:43;1.10;;;0.90;;
73747;SDS011;62056;52.130;5.428;2022-09-03T04:21:12;1.40;;;1.20;;
73747;SDS011;62056;52.130;5.428;2022-09-03T04:23:41;1.50;;;1.00;;
73747;SDS011;62056;52.130;5.428;2022-09-03T04:26:09;1.90;;;1.10;;
73747;SDS011;62056;52.130;5.428;2022-09-03T04:28:37;1.90;;;0.95;;
73747;SDS011;62056;52.130;5.428;2022-09-03T04:31:05;3.20;;;1.10;;
73747;SDS011;62056;52.130;5.428;2022-09-03T04:33:34;1.65;;;0.70;;
73747;SDS011;62056;52.130;5.428;2022-09-03T04:38:32;3.03;;;0.77;;
73747;SDS011;62056;52.130;5.428;2022-09-03T04:41:00;2.45;;;0.88;;
73747;SDS011;62056;52.130;5.428;2022-09-03T04:43:27;1.80;;;0.80;;
73747;SDS011;62056;52.130;5.428;2022-09-03T04:46:00;1.58;;;0.88;;
73747;SDS011;62056;52.130;5.428;2022-09-03T04:48:30;1.70;;;1.20;;
73747;SDS011;62056;52.130;5.428;2022-09-03T04:51:03;3.57;;;1.40;;
73747;SDS011;62056;52.130;5.428;2022-09-03T04:53:39;6.40;;;1.13;;
73747;SDS011;62056;52.130;5.428;2022-09-03T04:56:16;4.90;;;1.17;;
73747;SDS011;62056;52.130;5.428;2022-09-03T04:58:44;1.90;;;1.13;;
73747;SDS011;62056;52.130;5.428;2022-09-03T05:01:18;3.53;;;1.00;;
73747;SDS011;62056;52.130;5.428;2022-09-03T05:03:46;1.53;;;1.03;;
73747;SDS011;62056;52.130;5.428;2022-09-03T05:06:14;1.77;;;0.90;;
73747;SDS011;62056;52.130;5.428;2022-09-03T05:08:43;1.60;;;0.80;;
73747;SDS011;62056;52.130;5.428;2022-09-03T05:11:15;2.20;;;1.02;;
73747;SDS011;62056;52.130;5.428;2022-09-03T05:13:45;1.70;;;1.00;;
73747;SDS011;62056;52.130;5.428;2022-09-03T05:16:14;1.67;;;0.90;;
73747;SDS011;62056;52.130;5.428;2022-09-03T05:18:42;5.65;;;1.13;;
73747;SDS011;62056;52.130;5.428;2022-09-03T05:21:11;6.32;;;1.10;;
73747;SDS011;62056;52.130;5.428;2022-09-03T05:23:41;3.53;;;0.80;;
73747;SDS011;62056;52.130;5.428;2022-09-03T05:26:14;1.90;;;1.08;;
73747;SDS011;62056;52.130;5.428;2022-09-03T05:28:52;2.30;;;0.82;;
73747;SDS011;62056;52.130;5.428;2022-09-03T05:31:21;1.10;;;0.82;;
73747;SDS011;62056;52.130;5.428;2022-09-03T05:33:54;4.10;;;1.10;;
73747;SDS011;62056;52.130;5.428;2022-09-03T05:36:24;6.18;;;0.88;;
73747;SDS011;62056;52.130;5.428;2022-09-03T05:38:52;6.18;;;1.05;;
73747;SDS011;62056;52.130;5.428;2022-09-03T05:41:19;4.15;;;0.90;;
73747;SDS011;62056;52.130;5.428;2022-09-03T05:43:48;3.47;;;1.00;;
73747;SDS011;62056;52.130;5.428;2022-09-03T05:46:22;5.80;;;0.80;;
73747;SDS011;62056;52.130;5.428;2022-09-03T05:48:55;3.90;;;0.90;;
73747;SDS011;62056;52.130;5.428;2022-09-03T05:51:22;1.63;;;0.88;;
73747;SDS011;62056;52.130;5.428;2022-09-03T05:53:48;3.50;;;0.98;;
73747;SDS011;62056;52.130;5.428;2022-09-03T05:56:16;3.08;;;0.73;;
73747;SDS011;62056;52.130;5.428;2022-09-03T05:58:45;2.60;;;1.05;;
73747;SDS011;62056;52.130;5.428;2022-09-03T06:01:17;2.33;;;1.02;;
73747;SDS011;62056;52.130;5.428;2022-09-03T06:03:57;0.90;;;0.60;;
73747;SDS011;62056;52.130;5.428;2022-09-03T06:06:25;3.37;;;0.90;;
73747;SDS011;62056;52.130;5.428;2022-09-03T06:08:53;1.90;;;1.08;;
73747;SDS011;62056;52.130;5.428;2022-09-03T06:11:23;4.20;;;0.80;;
73747;SDS011;62056;52.130;5.428;2022-09-03T06:13:53;1.67;;;0.80;;
73747;SDS011;62056;52.130;5.428;2022-09-03T06:16:22;5.53;;;1.65;;
73747;SDS011;62056;52.130;5.428;2022-09-03T06:18:57;3.28;;;0.80;;
73747;SDS011;62056;52.130;5.428;2022-09-03T06:21:26;1.38;;;0.90;;
73747;SDS011;62056;52.130;5.428;2022-09-03T06:23:53;1.30;;;0.90;;
73747;SDS011;62056;52.130;5.428;2022-09-03T06:26:26;3.88;;;1.20;;
73747;SDS011;62056;52.130;5.428;2022-09-03T06:28:54;1.92;;;1.00;;
73747;SDS011;62056;52.130;5.428;2022-09-03T06:31:22;4.75;;;1.00;;
73747;SDS011;62056;52.130;5.428;2022-09-03T06:33:50;3.95;;;0.95;;
73747;SDS011;62056;52.130;5.428;2022-09-03T06:36:18;2.08;;;0.82;;
73747;SDS011;62056;52.130;5.428;2022-09-03T06:38:46;3.95;;;1.23;;
73747;SDS011;62056;52.130;5.428;2022-09-03T06:41:15;4.15;;;0.70;;
73747;SDS011;62056;52.130;5.428;2022-09-03T06:43:46;3.70;;;1.27;;
73747;SDS011;62056;52.130;5.428;2022-09-03T06:46:16;5.15;;;1.15;;
73747;SDS011;62056;52.130;5.428;2022-09-03T06:48:45;4.57;;;1.00;;
73747;SDS011;62056;52.130;5.428;2022-09-03T06:51:13;2.90;;;1.05;;
73747;SDS011;62056;52.130;5.428;2022-09-03T06:53:45;4.22;;;0.95;;
73747;SDS011;62056;52.130;5.428;2022-09-03T06:56:20;1.10;;;0.70;;
73747;SDS011;62056;52.130;5.428;2022-09-03T06:58:55;2.03;;;1.05;;
73747;SDS011;62056;52.130;5.428;2022-09-03T07:01:23;2.95;;;1.08;;
73747;SDS011;62056;52.130;5.428;2022-09-03T07:03:53;3.55;;;1.10;;
73747;SDS011;62056;52.130;5.428;2022-09-03T07:06:22;3.88;;;0.70;;
73747;SDS011;62056;52.130;5.428;2022-09-03T07:08:52;2.22;;;0.95;;
73747;SDS011;62056;52.130;5.428;2022-09-03T07:11:20;1.15;;;0.82;;
73747;SDS011;62056;52.130;5.428;2022-09-03T07:13:52;1.90;;;0.90;;
73747;SDS011;62056;52.130;5.428;2022-09-03T07:16:20;2.40;;;1.00;;
73747;SDS011;62056;52.130;5.428;2022-09-03T07:18:48;6.28;;;1.00;;
73747;SDS011;62056;52.130;5.428;2022-09-03T07:21:16;1.27;;;0.80;;
73747;SDS011;62056;52.130;5.428;2022-09-03T07:23:47;4.68;;;1.60;;
73747;SDS011;62056;52.130;5.428;2022-09-03T07:26:17;1.55;;;0.80;;
73747;SDS011;62056;52.130;5.428;2022-09-03T07:28:45;2.17;;;0.93;;
73747;SDS011;62056;52.130;5.428;2022-09-03T07:31:13;1.38;;;0.95;;
73747;SDS011;62056;52.130;5.428;2022-09-03T07:33:47;2.70;;;1.20;;
73747;SDS011;62056;52.130;5.428;2022-09-03T07:36:15;4.97;;;1.08;;
73747;SDS011;62056;52.130;5.428;2022-09-03T07:38:43;2.67;;;1.02;;
73747;SDS011;62056;52.130;5.428;2022-09-03T07:41:11;1.10;;;0.80;;
73747;SDS011;62056;52.130;5.428;2022-09-03T07:43:53;1.90;;;0.95;;
73747;SDS011;62056;52.130;5.428;2022-09-03T07:46:21;2.92;;;1.13;;
73747;SDS011;62056;52.130;5.428;2022-09-03T07:48:53;1.85;;;0.90;;
73747;SDS011;62056;52.130;5.428;2022-09-03T07:51:22;5.97;;;0.70;;
73747;SDS011;62056;52.130;5.428;2022-09-03T07:53:54;3.85;;;0.90;;
73747;SDS011;62056;52.130;5.428;2022-09-03T07:56:23;2.75;;;0.88;;
73747;SDS011;62056;52.130;5.428;2022-09-03T07:58:52;3.85;;;1.00;;
73747;SDS011;62056;52.130;5.428;2022-09-03T08:01:22;3.67;;;1.03;;
73747;SDS011;62056;52.130;5.428;2022-09-03T08:03:50;3.50;;;0.77;;
73747;SDS011;62056;52.130;5.428;2022-09-03T08:06:19;2.00;;;1.10;;
73747;SDS011;62056;52.130;5.428;2022-09-03T08:08:53;7.85;;;0.90;;
73747;SDS011;62056;52.130;5.428;2022-09-03T08:11:28;7.68;;;1.00;;
73747;SDS011;62056;52.130;5.428;2022-09-03T08:13:59;4.10;;;0.60;;
73747;SDS011;62056;52.130;5.428;2022-09-03T08:16:29;3.08;;;0.90;;
73747;SDS011;62056;52.130;5.428;2022-09-03T08:18:57;5.57;;;0.85;;
73747;SDS011;62056;52.130;5.428;2022-09-03T08:21:24;1.38;;;0.90;;
73747;SDS011;62056;52.130;5.428;2022-09-03T08:23:53;2.97;;;0.80;;
73747;SDS011;62056;52.130;5.428;2022-09-03T08:26:28;3.53;;;1.13;;
73747;SDS011;62056;52.130;5.428;2022-09-03T08:28:57;1.48;;;0.90;;
73747;SDS011;62056;52.130;5.428;2022-09-03T08:31:24;1.75;;;0.82;;
73747;SDS011;62056;52.130;5.428;2022-09-03T08:33:53;2.28;;;0.75;;
73747;SDS011;62056;52.130;5.428;2022-09-03T08:36:23;5.05;;;0.80;;
73747;SDS011;62056;52.130;5.428;2022-09-03T08:38:55;2.23;;;0.80;;
73747;SDS011;62056;52.130;5.428;2022-09-03T08:41:37;3.22;;;0.98;;
73747;SDS011;62056;52.130;5.428;2022-09-03T08:46:58;4.65;;;0.90;;
73747;SDS011;62056;52.130;5.428;2022-09-03T08:49:33;2.47;;;1.10;;
73747;SDS011;62056;52.130;5.428;2022-09-03T08:52:08;6.93;;;0.90;;
73747;SDS011;62056;52.130;5.428;2022-09-03T08:54:47;3.60;;;1.33;;
73747;SDS011;62056;52.130;5.428;2022-09-03T08:57:18;3.67;;;0.90;;
73747;SDS011;62056;52.130;5.428;2022-09-03T08:59:47;3.70;;;1.08;;
73747;SDS011;62056;52.130;5.428;2022-09-03T09:02:25;2.60;;;0.77;;
73747;SDS011;62056;52.130;5.428;2022-09-03T09:05:04;1.37;;;0.80;;
73747;SDS011;62056;52.130;5.428;2022-09-03T09:07:49;2.95;;;1.10;;
73747;SDS011;62056;52.130;5.428;2022-09-03T09:10:42;3.88;;;1.15;;
73747;SDS011;62056;52.130;5.428;2022-09-03T09:13:23;1.63;;;0.88;;
73747;SDS011;62056;52.130;5.428;2022-09-03T09:16:02;1.50;;;1.00;;
73747;SDS011;62056;52.130;5.428;2022-09-03T09:21:17;5.30;;;1.00;;
73747;SDS011;62056;52.130;5.428;2022-09-03T09:23:52;5.93;;;1.08;;
73747;SDS011;62056;52.130;5.428;2022-09-03T09:26:22;6.18;;;1.02;;
73747;SDS011;62056;52.130;5.428;2022-09-03T09:28:52;3.47;;;0.88;;
73747;SDS011;62056;52.130;5.428;2022-09-03T09:31:23;0.98;;;0.60;;
73747;SDS011;62056;52.130;5.428;2022-09-03T09:33:50;5.13;;;0.90;;
73747;SDS011;62056;52.130;5.428;2022-09-03T09:36:17;3.15;;;0.82;;
73747;SDS011;62056;52.130;5.428;2022-09-03T09:38:45;2.97;;;1.08;;
73747;SDS011;62056;52.130;5.428;2022-09-03T09:41:14;1.67;;;0.73;;
73747;SDS011;62056;52.130;5.428;2022-09-03T09:43:44;1.93;;;0.87;;
73747;SDS011;62056;52.130;5.428;2022-09-03T09:46:14;4.93;;;0.73;;
73747;SDS011;62056;52.130;5.428;2022-09-03T09:48:48;6.10;;;1.10;;
73747;SDS011;62056;52.130;5.428;2022-09-03T09:51:22;8.68;;;0.90;;
73747;SDS011;62056;52.130;5.428;2022-09-03T09:54:01;4.28;;;0.93;;
73747;SDS011;62056;52.130;5.428;2022-09-03T09:56:57;1.83;;;1.10;;
73747;SDS011;62056;52.130;5.428;2022-09-03T09:59:28;1.02;;;0.90;;
73747;SDS011;62056;52.130;5.428;2022-09-03T10:02:03;6.38;;;1.20;;
73747;SDS011;62056;52.130;5.428;2022-09-03T10:04:39;4.85;;;1.02;;
73747;SDS011;62056;52.130;5.428;2022-09-03T10:07:26;4.38;;;0.80;;
73747;SDS011;62056;52.130;5.428;2022-09-03T10:09:58;2.97;;;0.83;;
73747;SDS011;62056;52.130;5.428;2022-09-03T10:12:32;4.63;;;1.00;;
73747;SDS011;62056;52.130;5.428;2022-09-03T10:15:11;3.92;;;0.82;;
73747;SDS011;62056;52.130;5.428;2022-09-03T10:17:54;1.23;;;0.63;;
73747;SDS011;62056;52.130;5.428;2022-09-03T10:23:24;5.87;;;1.13;;
73747;SDS011;62056;52.130;5.428;2022-09-03T10:25:56;2.72;;;1.10;;
73747;SDS011;62056;52.130;5.428;2022-09-03T10:28:33;2.88;;;0.70;;
73747;SDS011;62056;52.130;5.428;2022-09-03T10:31:12;1.23;;;0.80;;
73747;SDS011;62056;52.130;5.428;2022-09-03T10:33:47;1.20;;;0.90;;
73747;SDS011;62056;52.130;5.428;2022-09-03T10:36:21;6.13;;;1.00;;
73747;SDS011;62056;52.130;5.428;2022-09-03T10:44:55;3.72;;;1.00;;
73747;SDS011;62056;52.130;5.428;2022-09-03T10:50:40;4.10;;;0.87;;
73747;SDS011;62056;52.130;5.428;2022-09-03T10:53:13;1.20;;;0.80;;
73747;SDS011;62056;52.130;5.428;2022-09-03T10:55:59;1.30;;;0.82;;
73747;SDS011;62056;52.130;5.428;2022-09-03T10:58:44;11.23;;;1.20;;
73747;SDS011;62056;52.130;5.428;2022-09-03T11:01:54;1.30;;;1.00;;
73747;SDS011;62056;52.130;5.428;2022-09-03T11:04:53;7.80;;;1.20;;
73747;SDS011;62056;52.130;5.428;2022-09-03T11:07:32;6.28;;;1.02;;
73747;SDS011;62056;52.130;5.428;2022-09-03T11:10:10;4.18;;;1.00;;
73747;SDS011;62056;52.130;5.428;2022-09-03T11:12:56;0.90;;;0.70;;
73747;SDS011;62056;52.130;5.428;2022-09-03T11:15:30;1.02;;;0.88;;
73747;SDS011;62056;52.130;5.428;2022-09-03T11:18:03;2.40;;;0.70;;
73747;SDS011;62056;52.130;5.428;2022-09-03T11:20:42;1.50;;;0.70;;
73747;SDS011;62056;52.130;5.428;2022-09-03T11:23:10;4.60;;;0.90;;
73747;SDS011;62056;52.130;5.428;2022-09-03T11:25:42;1.58;;;0.82;;
73747;SDS011;62056;52.130;5.428;2022-09-03T11:28:32;1.30;;;1.00;;
73747;SDS011;62056;52.130;5.428;2022-09-03T11:31:20;1.30;;;1.00;;
73747;SDS011;62056;52.130;5.428;2022-09-03T11:33:56;8.35;;;0.90;;
73747;SDS011;62056;52.130;5.428;2022-09-03T11:36:31;1.75;;;0.75;;
73747;SDS011;62056;52.130;5.428;2022-09-03T11:39:11;4.15;;;1.10;;
73747;SDS011;62056;52.130;5.428;2022-09-03T11:41:59;2.25;;;0.95;;
73747;SDS011;62056;52.130;5.428;2022-09-03T11:44:40;1.27;;;0.83;;
73747;SDS011;62056;52.130;5.428;2022-09-03T11:47:24;1.10;;;0.80;;
73747;SDS011;62056;52.130;5.428;2022-09-03T11:50:23;1.20;;;0.77;;
73747;SDS011;62056;52.130;5.428;2022-09-03T11:53:06;4.88;;;0.98;;
73747;SDS011;62056;52.130;5.428;2022-09-03T11:55:48;2.60;;;0.90;;
73747;SDS011;62056;52.130;5.428;2022-09-03T12:01:00;2.85;;;0.90;;
73747;SDS011;62056;52.130;5.428;2022-09-03T12:03:29;1.88;;;1.38;;
73747;SDS011;62056;52.130;5.428;2022-09-03T12:06:17;1.42;;;1.00;;
73747;SDS011;62056;52.130;5.428;2022-09-03T12:09:19;1.20;;;0.80;;
73747;SDS011;62056;52.130;5.428;2022-09-03T12:17:53;3.25;;;1.30;;
73747;SDS011;62056;52.130;5.428;2022-09-03T12:20:43;3.13;;;0.90;;
73747;SDS011;62056;52.130;5.428;2022-09-03T12:23:11;1.33;;;0.80;;
73747;SDS011;62056;52.130;5.428;2022-09-03T12:25:42;6.00;;;0.97;;
73747;SDS011;62056;52.130;5.428;2022-09-03T12:28:15;2.05;;;1.13;;
73747;SDS011;62056;52.130;5.428;2022-09-03T12:30:46;2.50;;;1.17;;
73747;SDS011;62056;52.130;5.428;2022-09-03T12:33:15;3.20;;;1.00;;
73747;SDS011;62056;52.130;5.428;2022-09-03T12:35:43;6.95;;;1.10;;
73747;SDS011;62056;52.130;5.428;2022-09-03T12:38:25;6.33;;;1.37;;
73747;SDS011;62056;52.130;5.428;2022-09-03T12:40:55;3.10;;;0.80;;
73747;SDS011;62056;52.130;5.428;2022-09-03T12:43:48;4.90;;;1.00;;
73747;SDS011;62056;52.130;5.428;2022-09-03T12:46:17;2.33;;;1.05;;
73747;SDS011;62056;52.130;5.428;2022-09-03T12:48:56;2.25;;;1.20;;
73747;SDS011;62056;52.130;5.428;2022-09-03T12:51:49;4.90;;;0.90;;
73747;SDS011;62056;52.130;5.428;2022-09-03T12:54:22;2.15;;;1.10;;
73747;SDS011;62056;52.130;5.428;2022-09-03T12:56:57;3.35;;;1.02;;
73747;SDS011;62056;52.130;5.428;2022-09-03T12:59:28;2.25;;;0.80;;
73747;SDS011;62056;52.130;5.428;2022-09-03T13:02:02;1.60;;;1.10;;
73747;SDS011;62056;52.130;5.428;2022-09-03T13:04:38;4.43;;;1.17;;
73747;SDS011;62056;52.130;5.428;2022-09-03T13:07:20;2.53;;;1.30;;
73747;SDS011;62056;52.130;5.428;2022-09-03T13:09:51;6.05;;;1.30;;
73747;SDS011;62056;52.130;5.428;2022-09-03T13:12:30;3.08;;;1.67;;
73747;SDS011;62056;52.130;5.428;2022-09-03T13:15:07;6.00;;;1.30;;
73747;SDS011;62056;52.130;5.428;2022-09-03T13:17:41;1.23;;;1.03;;
73747;SDS011;62056;52.130;5.428;2022-09-03T13:29:11;5.55;;;1.70;;
73747;SDS011;62056;52.130;5.428;2022-09-03T13:31:49;3.43;;;1.20;;
73747;SDS011;62056;52.130;5.428;2022-09-03T13:37:04;1.75;;;1.10;;
73747;SDS011;62056;52.130;5.428;2022-09-03T13:39:56;3.25;;;1.40;;
73747;SDS011;62056;52.130;5.428;2022-09-03T13:42:30;4.30;;;2.95;;
73747;SDS011;62056;52.130;5.428;2022-09-03T13:47:58;3.72;;;1.02;;
73747;SDS011;62056;52.130;5.428;2022-09-03T13:51:00;4.63;;;1.25;;
73747;SDS011;62056;52.130;5.428;2022-09-03T13:53:45;2.85;;;2.53;;
73747;SDS011;62056;52.130;5.428;2022-09-03T14:02:06;1.52;;;1.27;;
73747;SDS011;62056;52.130;5.428;2022-09-03T14:05:22;2.75;;;1.20;;
73747;SDS011;62056;52.130;5.428;2022-09-03T14:08:03;4.43;;;1.77;;
73747;SDS011;62056;52.130;5.428;2022-09-03T14:16:38;3.05;;;1.40;;
73747;SDS011;62056;52.130;5.428;2022-09-03T14:19:16;1.38;;;1.27;;
73747;SDS011;62056;52.130;5.428;2022-09-03T14:21:57;3.13;;;1.70;;
73747;SDS011;62056;52.130;5.428;2022-09-03T14:24:30;1.40;;;1.30;;
73747;SDS011;62056;52.130;5.428;2022-09-03T14:27:01;4.53;;;1.40;;
73747;SDS011;62056;52.130;5.428;2022-09-03T14:29:33;4.57;;;1.20;;
73747;SDS011;62056;52.130;5.428;2022-09-03T14:32:14;4.85;;;1.50;;
73747;SDS011;62056;52.130;5.428;2022-09-03T14:41:35;3.33;;;1.40;;
73747;SDS011;62056;52.130;5.428;2022-09-03T14:55:21;1.40;;;1.30;;
73747;SDS011;62056;52.130;5.428;2022-09-03T14:58:03;5.60;;;1.40;;
73747;SDS011;62056;52.130;5.428;2022-09-03T15:03:26;3.38;;;1.60;;
73747;SDS011;62056;52.130;5.428;2022-09-03T15:06:22;2.92;;;1.90;;
73747;SDS011;62056;52.130;5.428;2022-09-03T15:09:06;3.10;;;1.37;;
73747;SDS011;62056;52.130;5.428;2022-09-03T15:12:00;3.95;;;1.23;;
73747;SDS011;62056;52.130;5.428;2022-09-03T15:14:50;2.20;;;1.42;;
73747;SDS011;62056;52.130;5.428;2022-09-03T15:20:52;2.08;;;1.52;;
73747;SDS011;62056;52.130;5.428;2022-09-03T15:37:07;1.63;;;1.53;;
73747;SDS011;62056;52.130;5.428;2022-09-03T15:39:40;2.63;;;1.40;;
73747;SDS011;62056;52.130;5.428;2022-09-03T15:42:16;2.97;;;1.67;;
73747;SDS011;62056;52.130;5.428;2022-09-03T15:44:50;5.70;;;1.73;;
73747;SDS011;62056;52.130;5.428;2022-09-03T15:47:31;4.80;;;1.67;;
73747;SDS011;62056;52.130;5.428;2022-09-03T15:56:18;2.35;;;1.50;;
73747;SDS011;62056;52.130;5.428;2022-09-03T15:59:13;3.47;;;1.48;;
73747;SDS011;62056;52.130;5.428;2022-09-03T16:01:47;2.58;;;1.83;;
73747;SDS011;62056;52.130;5.428;2022-09-03T16:04:31;3.93;;;1.70;;
73747;SDS011;62056;52.130;5.428;2022-09-03T16:07:36;2.45;;;1.48;;
73747;SDS011;62056;52.130;5.428;2022-09-03T16:10:15;4.38;;;1.67;;
73747;SDS011;62056;52.130;5.428;2022-09-03T16:13:20;3.85;;;1.83;;
73747;SDS011;62056;52.130;5.428;2022-09-03T16:15:59;2.05;;;1.60;;
73747;SDS011;62056;52.130;5.428;2022-09-03T16:18:36;2.10;;;1.53;;
73747;SDS011;62056;52.130;5.428;2022-09-03T16:21:45;4.68;;;1.90;;
73747;SDS011;62056;52.130;5.428;2022-09-03T16:24:32;4.28;;;1.50;;
73747;SDS011;62056;52.130;5.428;2022-09-03T16:27:15;5.13;;;1.35;;
73747;SDS011;62056;52.130;5.428;2022-09-03T16:29:54;2.90;;;1.60;;
73747;SDS011;62056;52.130;5.428;2022-09-03T16:32:53;1.70;;;1.50;;
73747;SDS011;62056;52.130;5.428;2022-09-03T16:36:10;11.00;;;1.70;;
73747;SDS011;62056;52.130;5.428;2022-09-03T16:39:01;2.97;;;2.03;;
73747;SDS011;62056;52.130;5.428;2022-09-03T16:44:42;2.20;;;1.67;;
73747;SDS011;62056;52.130;5.428;2022-09-03T16:47:23;2.13;;;1.70;;
73747;SDS011;62056;52.130;5.428;2022-09-03T16:53:03;5.53;;;1.58;;
73747;SDS011;62056;52.130;5.428;2022-09-03T16:58:56;5.32;;;1.45;;
73747;SDS011;62056;52.130;5.428;2022-09-03T17:01:40;7.10;;;1.53;;
73747;SDS011;62056;52.130;5.428;2022-09-03T17:10:22;5.28;;;2.13;;
73747;SDS011;62056;52.130;5.428;2022-09-03T17:18:58;3.65;;;2.00;;
73747;SDS011;62056;52.130;5.428;2022-09-03T17:22:06;2.30;;;2.10;;
73747;SDS011;62056;52.130;5.428;2022-09-03T17:24:42;3.85;;;2.47;;
73747;SDS011;62056;52.130;5.428;2022-09-03T17:27:24;2.40;;;2.20;;
73747;SDS011;62056;52.130;5.428;2022-09-03T17:30:02;4.13;;;2.50;;
73747;SDS011;62056;52.130;5.428;2022-09-03T17:36:17;8.13;;;2.30;;
73747;SDS011;62056;52.130;5.428;2022-09-03T17:39:04;3.33;;;2.65;;
73747;SDS011;62056;52.130;5.428;2022-09-03T17:41:54;3.47;;;3.17;;
73747;SDS011;62056;52.130;5.428;2022-09-03T17:50:24;3.40;;;2.75;;
73747;SDS011;62056;52.130;5.428;2022-09-03T17:52:55;7.68;;;4.25;;
73747;SDS011;62056;52.130;5.428;2022-09-03T17:55:37;5.00;;;2.25;;
73747;SDS011;62056;52.130;5.428;2022-09-03T18:03:44;3.97;;;2.15;;
73747;SDS011;62056;52.130;5.428;2022-09-03T18:06:33;8.05;;;1.80;;
73747;SDS011;62056;52.130;5.428;2022-09-03T18:09:10;6.28;;;3.85;;
73747;SDS011;62056;52.130;5.428;2022-09-03T18:11:49;12.93;;;2.60;;
73747;SDS011;62056;52.130;5.428;2022-09-03T18:14:22;6.10;;;2.42;;
73747;SDS011;62056;52.130;5.428;2022-09-03T18:17:10;6.03;;;2.22;;
73747;SDS011;62056;52.130;5.428;2022-09-03T18:19:58;2.25;;;2.03;;
73747;SDS011;62056;52.130;5.428;2022-09-03T18:25:59;8.43;;;6.03;;
73747;SDS011;62056;52.130;5.428;2022-09-03T18:29:00;3.30;;;3.00;;
73747;SDS011;62056;52.130;5.428;2022-09-03T18:31:48;4.90;;;4.60;;
73747;SDS011;62056;52.130;5.428;2022-09-03T18:34:34;4.95;;;2.50;;
73747;SDS011;62056;52.130;5.428;2022-09-03T18:37:21;7.78;;;2.58;;